Station Historical Data
Daily Summary for January 27, 2017 Units:  Metric    English   Both
Next Day »
Daily Weekly Monthly Yearly Custom
  High: Low: Average:
Temperature: 9.7 °C 0.3 °C 3.9 °C
Dew Point: 2.4 °C -5.1 °C -0.9 °C
Humidity: 93% 40% 72%
Wind Speed: 24.1km/h 0km/h 2.6km/h
Wind Gust: 33.8km/h - -
Wind- - SSE
Pressure: 1039.2 hPa 1034.4 hPa -
Precipitation: 0 mm    
Historical Graphs
 
 
Tabular Data for January 27, 2017
Time Temperature Dew Point Pressure Wind Wind Speed Wind Gust Humidity Rainfall Rate (Hourly) solar Conditions
00:00 0.3 °C -2.8 °C 1035.1 hPa East 1.6 km/h 1.6 km/h 80% 0 mm 0.00 W/m2
00:05 0.3 °C -2.8 °C 1035.1 hPa East 1.6 km/h 3.2 km/h 80% 0 mm 0.00 W/m2
00:10 0.3 °C -2.8 °C 1035.1 hPa Calm   4.8 km/h 80% 0 mm 0.00 W/m2
00:15 0.3 °C -2.7 °C 1035.1 hPa East 1.6 km/h 3.2 km/h 80% 0 mm 0.00 W/m2
00:20 0.3 °C -2.9 °C 1035.1 hPa ENE 1.6 km/h 4.8 km/h 79% 0 mm 0.00 W/m2
00:25 0.4 °C -2.8 °C 1034.8 hPa ENE 1.6 km/h 6.4 km/h 79% 0 mm 0.00 W/m2
00:30 0.6 °C -2.8 °C 1034.8 hPa East 6.4 km/h 9.7 km/h 78% 0 mm 0.00 W/m2
00:35 0.7 °C -2.7 °C 1034.8 hPa ENE 11.3 km/h 20.9 km/h 78% 0 mm 0.00 W/m2
00:40 0.8 °C -2.6 °C 1034.8 hPa ENE 6.4 km/h 17.7 km/h 78% 0 mm 0.00 W/m2
00:45 0.8 °C -2.9 °C 1034.8 hPa ENE 4.8 km/h 17.7 km/h 76% 0 mm 0.00 W/m2
00:50 0.9 °C -2.8 °C 1034.8 hPa ENE 1.6 km/h 12.9 km/h 76% 0 mm 0.00 W/m2
00:55 1 °C -2.8 °C 1035.1 hPa NE 1.6 km/h 4.8 km/h 76% 0 mm 0.00 W/m2
01:00 1.1 °C -3.4 °C 1035.1 hPa NE 1.6 km/h 3.2 km/h 72% 0 mm 0.00 W/m2
01:06 1.2 °C -2.6 °C 1035.1 hPa ENE 1.6 km/h 20.9 km/h 76% 0 mm 0.00 W/m2
01:10 1.2 °C -2.6 °C 1035.1 hPa ENE 17.7 km/h 20.9 km/h 76% 0 mm 0.00 W/m2
01:16 1.3 °C -2.7 °C 1034.8 hPa East 19.3 km/h 24.1 km/h 75% 0 mm 0.00 W/m2
01:21 1.3 °C -2.7 °C 1034.8 hPa ENE 16.1 km/h 22.5 km/h 75% 0 mm 0.00 W/m2
01:26 1.3 °C -2.8 °C 1034.8 hPa East 12.9 km/h 29 km/h 74% 0 mm 0.00 W/m2
01:31 1.4 °C -2.7 °C 1034.8 hPa East 8 km/h 24.1 km/h 74% 0 mm 0.00 W/m2
01:36 1.4 °C -2.5 °C 1034.4 hPa East 9.7 km/h 25.7 km/h 75% 0 mm 0.00 W/m2
01:41 1.4 °C -2.5 °C 1034.4 hPa East 17.7 km/h 24.1 km/h 75% 0 mm 0.00 W/m2
01:46 1.5 °C -2.6 °C 1034.4 hPa East 1.6 km/h 19.3 km/h 74% 0 mm 0.00 W/m2
01:51 1.5 °C -2.3 °C 1034.8 hPa East 19.3 km/h 29 km/h 76% 0 mm 0.00 W/m2
01:56 1.5 °C -2.8 °C 1034.8 hPa ESE 11.3 km/h 24.1 km/h 73% 0 mm 0.00 W/m2
02:01 1.6 °C -2.2 °C 1034.4 hPa East 24.1 km/h 29 km/h 76% 0 mm 0.00 W/m2
02:11 1.4 °C -2.3 °C 1034.8 hPa East 9.7 km/h 24.1 km/h 76% 0 mm 0.00 W/m2
02:16 1.4 °C -2.5 °C 1034.8 hPa ESE 11.3 km/h 24.1 km/h 75% 0 mm 0.00 W/m2
02:21 1.4 °C -2.7 °C 1034.8 hPa ESE 9.7 km/h 33.8 km/h 74% 0 mm 0.00 W/m2
02:26 1.5 °C -2.6 °C 1034.8 hPa Calm   20.9 km/h 74% 0 mm 0.00 W/m2
02:31 1.5 °C -2.1 °C 1034.4 hPa ENE 8 km/h 19.3 km/h 77% 0 mm 0.00 W/m2
02:36 1.5 °C -2.1 °C 1034.8 hPa Calm   16.1 km/h 77% 0 mm 0.00 W/m2
02:41 1.4 °C -2.4 °C 1034.8 hPa Calm   8 km/h 76% 0 mm 0.00 W/m2
02:46 1.3 °C -2.6 °C 1034.8 hPa Calm   11.3 km/h 75% 0 mm 0.00 W/m2
02:51 1.3 °C -2.5 °C 1034.8 hPa Calm   16.1 km/h 76% 0 mm 0.00 W/m2
02:56 1.2 °C -2.9 °C 1034.8 hPa Calm   11.3 km/h 74% 0 mm 0.00 W/m2
03:01 1.1 °C -2.8 °C 1034.8 hPa Calm     75% 0 mm 0.00 W/m2
03:06 1.1 °C -2.9 °C 1034.8 hPa Calm     75% 0 mm 0.00 W/m2
03:11 1 °C -2.9 °C 1034.8 hPa Calm     75% 0 mm 0.00 W/m2
03:16 0.9 °C -3.1 °C 1034.8 hPa ESE 11.3 km/h 11.3 km/h 75% 0 mm 0.00 W/m2
03:21 0.8 °C -2.8 °C 1035.1 hPa East 8 km/h 12.9 km/h 77% 0 mm 0.00 W/m2
03:26 0.7 °C -2.7 °C 1035.1 hPa East 9.7 km/h 12.9 km/h 78% 0 mm 0.00 W/m2
03:31 0.6 °C -3 °C 1035.1 hPa ENE 8 km/h 27.4 km/h 77% 0 mm 0.00 W/m2
03:41 0.6 °C -3.2 °C 1035.1 hPa ENE 16.1 km/h 24.1 km/h 76% 0 mm 0.00 W/m2
03:46 0.7 °C -2.9 °C 1035.1 hPa ESE 8 km/h 19.3 km/h 77% 0 mm 0.00 W/m2
03:52 0.7 °C -3.2 °C 1035.1 hPa East 12.9 km/h 19.3 km/h 75% 0 mm 0.00 W/m2
03:57 0.9 °C -3.1 °C 1035.1 hPa ESE 17.7 km/h 24.1 km/h 75% 0 mm 0.00 W/m2
04:02 0.9 °C -2.8 °C 1035.1 hPa East 3.2 km/h 16.1 km/h 76% 0 mm 0.00 W/m2
04:07 1.1 °C -3.2 °C 1035.1 hPa East 9.7 km/h 17.7 km/h 73% 0 mm 0.00 W/m2
04:12 1.1 °C -3.4 °C 1035.1 hPa East 11.3 km/h 16.1 km/h 72% 0 mm 0.00 W/m2
04:22 1.3 °C -2.8 °C 1035.4 hPa East 12.9 km/h 20.9 km/h 74% 0 mm 0.00 W/m2
04:24 1.3 °C -3.2 °C 1035.4 hPa Calm   20.9 km/h 72% 0 mm 0.00 W/m2
04:29 1.3 °C -3.2 °C 1035.4 hPa East 6.4 km/h 17.7 km/h 72% 0 mm 0.00 W/m2
04:34 1.4 °C -2.9 °C 1035.8 hPa East 3.2 km/h 22.5 km/h 73% 0 mm 0.00 W/m2
04:39 1.4 °C -3.1 °C 1035.8 hPa East 3.2 km/h 19.3 km/h 72% 0 mm 0.00 W/m2
04:44 1.4 °C -3.1 °C 1035.8 hPa ESE 14.5 km/h 25.7 km/h 72% 0 mm 0.00 W/m2
04:49 1.4 °C -3.2 °C 1035.8 hPa East 8 km/h 19.3 km/h 71% 0 mm 0.00 W/m2
04:54 1.4 °C -3.2 °C 1035.8 hPa ESE 8 km/h 19.3 km/h 71% 0 mm 0.00 W/m2
04:59 1.4 °C -3.2 °C 1035.8 hPa ESE 19.3 km/h 19.3 km/h 71% 0 mm 0.00 W/m2
05:04 1.4 °C -3.2 °C 1035.8 hPa ESE 6.4 km/h 17.7 km/h 71% 0 mm 0.00 W/m2
05:09 1.5 °C -3.2 °C 1035.8 hPa East 6.4 km/h 19.3 km/h 71% 0 mm 0.00 W/m2
05:14 1.5 °C -3.2 °C 1035.8 hPa SE 12.9 km/h 20.9 km/h 71% 0 mm 0.00 W/m2
05:19 1.5 °C -3.2 °C 1036.1 hPa ESE 14.5 km/h 14.5 km/h 71% 0 mm 0.00 W/m2
05:24 1.5 °C -3 °C 1036.1 hPa ESE 3.2 km/h 14.5 km/h 72% 0 mm 0.00 W/m2
05:29 1.5 °C -3.4 °C 1036.1 hPa East 9.7 km/h 14.5 km/h 70% 0 mm 0.00 W/m2
05:34 1.5 °C -3 °C 1036.1 hPa ESE 1.6 km/h 14.5 km/h 72% 0 mm 0.00 W/m2
05:39 1.5 °C -3 °C 1036.1 hPa ESE 12.9 km/h 14.5 km/h 72% 0 mm 0.00 W/m2
05:44 1.4 °C -3.1 °C 1036.1 hPa ESE 9.7 km/h 14.5 km/h 72% 0 mm 0.00 W/m2
05:49 1.4 °C -2.8 °C 1036.1 hPa ESE 3.2 km/h 11.3 km/h 73% 0 mm 0.00 W/m2
05:59 1.4 °C -3.3 °C 1035.8 hPa Calm   17.7 km/h 71% 0 mm 0.00 W/m2
06:04 1.3 °C -3.2 °C 1035.8 hPa Calm   19.3 km/h 72% 0 mm 0.00 W/m2
06:09 1.3 °C -3.2 °C 1035.8 hPa Calm   20.9 km/h 72% 0 mm 0.00 W/m2
06:14 1.3 °C -3.3 °C 1036.1 hPa Calm   22.5 km/h 71% 0 mm 0.00 W/m2
06:19 1.3 °C -2.9 °C 1036.1 hPa ESE 17.7 km/h 19.3 km/h 73% 0 mm 0.00 W/m2
06:24 1.3 °C -3.3 °C 1036.1 hPa ESE 8 km/h 17.7 km/h 71% 0 mm 0.00 W/m2
06:29 1.3 °C -3.6 °C 1036.1 hPa Calm   14.5 km/h 70% 0 mm 0.00 W/m2
06:34 1.3 °C -3.7 °C 1036.1 hPa ESE 11.3 km/h 17.7 km/h 69% 0 mm 0.00 W/m2
06:39 1.4 °C -3.7 °C 1036.5 hPa ESE 6.4 km/h 14.5 km/h 69% 0 mm 0.00 W/m2
06:44 1.4 °C -3.1 °C 1036.5 hPa ESE 3.2 km/h 12.9 km/h 72% 0 mm 0.00 W/m2
06:49 1.4 °C -3.3 °C 1036.5 hPa Calm   1.6 km/h 71% 0 mm 0.00 W/m2
06:54 1.4 °C -3.1 °C 1036.5 hPa Calm   1.6 km/h 72% 0 mm 0.00 W/m2
06:59 1.3 °C -3.3 °C 1036.5 hPa Calm   1.6 km/h 71% 0 mm 0.00 W/m2
07:04 1.3 °C -3.4 °C 1036.5 hPa ESE 6.4 km/h 9.7 km/h 71% 0 mm 7.00 W/m2
07:10 1.2 °C -3.7 °C 1036.5 hPa Calm   12.9 km/h 70% 0 mm 9.00 W/m2
07:15 1.1 °C -3.4 °C 1036.5 hPa ESE 8 km/h 12.9 km/h 72% 0 mm 11.00 W/m2
07:20 1 °C -3.5 °C 1036.5 hPa Calm   12.9 km/h 72% 0 mm 16.00 W/m2
07:25 0.9 °C -3.6 °C 1036.5 hPa ESE 14.5 km/h 14.5 km/h 72% 0 mm 19.00 W/m2
07:30 0.8 °C -3.5 °C 1036.5 hPa Calm   14.5 km/h 73% 0 mm 23.00 W/m2
07:35 0.8 °C -3.5 °C 1036.5 hPa East 1.6 km/h 1.6 km/h 73% 0 mm 32.00 W/m2
07:40 0.8 °C -3.5 °C 1036.5 hPa ESE 6.4 km/h 12.9 km/h 73% 0 mm 44.00 W/m2
07:45 0.8 °C -3.5 °C 1036.5 hPa Calm   19.3 km/h 73% 0 mm 60.00 W/m2
07:50 0.8 °C -3.5 °C 1036.5 hPa Calm   12.9 km/h 73% 0 mm 81.00 W/m2
07:55 0.8 °C -3.6 °C 1036.5 hPa Calm   1.6 km/h 72% 0 mm 100.00 W/m2
08:00 0.9 °C -4.5 °C 1036.5 hPa Calm     67% 0 mm 125.00 W/m2
08:05 1.2 °C -3.8 °C 1036.5 hPa Calm     69% 0 mm 132.00 W/m2
08:10 1.3 °C -3.3 °C 1036.8 hPa Calm   1.6 km/h 71% 0 mm 148.00 W/m2
08:15 1.4 °C -3.1 °C 1036.8 hPa Calm     72% 0 mm 190.00 W/m2
08:20 1.5 °C -3 °C 1036.8 hPa Calm     72% 0 mm 199.00 W/m2
08:25 1.6 °C -3.1 °C 1036.8 hPa Calm     71% 0 mm 218.00 W/m2
08:30 1.6 °C -3.1 °C 1036.8 hPa Calm     71% 0 mm 246.00 W/m2
08:40 1.8 °C -3.1 °C 1036.8 hPa Calm     70% 0 mm 200.00 W/m2
08:45 1.9 °C -2.9 °C 1036.8 hPa Calm     70% 0 mm 202.00 W/m2
08:50 2.1 °C -3.2 °C 1036.8 hPa Calm   1.6 km/h 68% 0 mm 327.00 W/m2
08:55 2.3 °C -2.8 °C 1036.8 hPa NNW 1.6 km/h 3.2 km/h 69% 0 mm 353.00 W/m2
09:00 2.7 °C -3.9 °C 1036.8 hPa Calm   4.8 km/h 62% 0 mm 353.00 W/m2
09:05 3.2 °C -4.3 °C 1036.8 hPa North 1.6 km/h 6.4 km/h 58% 0 mm 304.00 W/m2
09:10 3.7 °C -3.6 °C 1036.8 hPa Calm   11.3 km/h 59% 0 mm 401.00 W/m2
09:15 3.9 °C -4.3 °C 1036.8 hPa Calm   11.3 km/h 55% 0 mm 329.00 W/m2
09:20 4.2 °C -4.5 °C 1036.8 hPa Calm   16.1 km/h 53% 0 mm 352.00 W/m2
09:25 4.3 °C -2.9 °C 1036.8 hPa North 3.2 km/h 4.8 km/h 59% 0 mm 229.00 W/m2
09:30 4.4 °C -3.8 °C 1036.8 hPa NNE 1.6 km/h 4.8 km/h 55% 0 mm 417.00 W/m2
09:35 4.4 °C -3.1 °C 1036.8 hPa Calm   4.8 km/h 58% 0 mm 374.00 W/m2
09:41 4.5 °C -2.8 °C 1036.8 hPa Calm   11.3 km/h 59% 0 mm 417.00 W/m2
09:46 4.6 °C -4.4 °C 1036.8 hPa North 3.2 km/h 11.3 km/h 52% 0 mm 406.00 W/m2
09:51 4.8 °C -3.4 °C 1036.8 hPa NNW 1.6 km/h 4.8 km/h 55% 0 mm 246.00 W/m2
09:56 5.1 °C -2.3 °C 1037.1 hPa Calm   3.2 km/h 59% 0 mm 448.00 W/m2
10:01 5.1 °C -2.5 °C 1037.1 hPa North 1.6 km/h 11.3 km/h 58% 0 mm 475.00 W/m2
10:06 5.2 °C -3.9 °C 1037.1 hPa NNW 8 km/h 14.5 km/h 52% 0 mm 399.00 W/m2
10:11 5.4 °C -2.9 °C 1037.1 hPa Calm   11.3 km/h 55% 0 mm 538.00 W/m2
10:16 5.6 °C -1.8 °C 1037.1 hPa NNW 11.3 km/h 16.1 km/h 59% 0 mm 501.00 W/m2
10:21 5.6 °C -2.2 °C 1036.8 hPa NNW 3.2 km/h 14.5 km/h 57% 0 mm 427.00 W/m2
10:26 5.7 °C -2.2 °C 1036.8 hPa Calm   11.3 km/h 57% 0 mm 315.00 W/m2
10:31 5.8 °C -2.8 °C 1036.8 hPa Calm   4.8 km/h 54% 0 mm 559.00 W/m2
10:36 5.9 °C -0.8 °C 1036.8 hPa NW 1.6 km/h 12.9 km/h 62% 0 mm 575.00 W/m2
10:41 6.1 °C -1.3 °C 1036.8 hPa NNW 12.9 km/h 14.5 km/h 59% 0 mm 564.00 W/m2
10:46 6.2 °C -2.9 °C 1036.8 hPa NNW 11.3 km/h 12.9 km/h 52% 0 mm 566.00 W/m2
10:51 6.4 °C -3.2 °C 1037.1 hPa Calm   11.3 km/h 50% 0 mm 563.00 W/m2
10:56 6.7 °C -3.3 °C 1036.8 hPa Calm   4.8 km/h 49% 0 mm 566.00 W/m2
11:01 6.8 °C -3.1 °C 1037.1 hPa NW 1.6 km/h 1.6 km/h 49% 0 mm 568.00 W/m2
11:06 6.9 °C -3.3 °C 1037.1 hPa Calm   6.4 km/h 48% 0 mm 573.00 W/m2
11:11 7.1 °C -3.2 °C 1037.1 hPa NW 1.6 km/h 3.2 km/h 48% 0 mm 577.00 W/m2
11:16 7.2 °C -1.9 °C 1037.1 hPa NNW 1.6 km/h 1.6 km/h 52% 0 mm 584.00 W/m2
11:21 7.4 °C -3.4 °C 1037.1 hPa NW 3.2 km/h 6.4 km/h 46% 0 mm 585.00 W/m2
11:26 7.6 °C -5.1 °C 1037.1 hPa North 1.6 km/h 8 km/h 40% 0 mm 589.00 W/m2
11:31 7.9 °C -2.7 °C 1036.8 hPa Calm   1.6 km/h 47% 0 mm 594.00 W/m2
11:36 7.9 °C -2.7 °C 1037.1 hPa Calm   1.6 km/h 47% 0 mm 594.00 W/m2
11:41 7.9 °C -2.2 °C 1036.8 hPa Calm     49% 0 mm 598.00 W/m2
11:46 7.8 °C -1.7 °C 1036.8 hPa NW 1.6 km/h 1.6 km/h 51% 0 mm 598.00 W/m2
11:51 7.8 °C -2.6 °C 1036.8 hPa Calm     48% 0 mm 601.00 W/m2
11:56 7.8 °C -0.9 °C 1036.8 hPa Calm     54% 0 mm 603.00 W/m2
12:01 7.8 °C -0.7 °C 1036.8 hPa NW 1.6 km/h 1.6 km/h 55% 0 mm 603.00 W/m2
12:06 7.8 °C -1.2 °C 1036.5 hPa Calm   1.6 km/h 53% 0 mm 603.00 W/m2
12:11 7.8 °C -1.7 °C 1036.5 hPa NW 1.6 km/h 1.6 km/h 51% 0 mm 605.00 W/m2
12:16 7.9 °C -1.6 °C 1036.5 hPa Calm   1.6 km/h 51% 0 mm 605.00 W/m2
12:21 8.2 °C -0.8 °C 1036.5 hPa NW 1.6 km/h 1.6 km/h 53% 0 mm 603.00 W/m2
12:26 8.2 °C -0.8 °C 1036.5 hPa Calm   1.6 km/h 53% 0 mm 601.00 W/m2
12:31 8.3 °C -1.2 °C 1036.1 hPa Calm   1.6 km/h 51% 0 mm 601.00 W/m2
12:36 8.4 °C -0.6 °C 1036.1 hPa Calm     53% 0 mm 598.00 W/m2
12:41 8.5 °C -0.6 °C 1036.1 hPa Calm     53% 0 mm 596.00 W/m2
12:46 8.6 °C -0.5 °C 1036.1 hPa Calm     53% 0 mm 594.00 W/m2
12:51 8.7 °C -1.2 °C 1036.1 hPa Calm     50% 0 mm 589.00 W/m2
12:56 8.8 °C -0.6 °C 1036.1 hPa Calm     52% 0 mm 587.00 W/m2
13:01 8.8 °C -0.2 °C 1035.8 hPa Calm   1.6 km/h 53% 0 mm 584.00 W/m2
13:06 8.8 °C -0.7 °C 1035.8 hPa Calm     51% 0 mm 578.00 W/m2
13:11 9 °C -0.6 °C 1035.8 hPa Calm     51% 0 mm 573.00 W/m2
13:16 9.1 °C 0.3 °C 1035.8 hPa Calm     54% 0 mm 568.00 W/m2
13:21 9.2 °C 0.4 °C 1035.8 hPa NW 1.6 km/h 1.6 km/h 54% 0 mm 563.00 W/m2
13:27 9.2 °C -0.1 °C 1035.4 hPa Calm   1.6 km/h 52% 0 mm 559.00 W/m2
13:32 9.2 °C 0.4 °C 1035.4 hPa WNW 1.6 km/h 1.6 km/h 54% 0 mm 550.00 W/m2
13:37 9.2 °C 0.9 °C 1035.4 hPa Calm     56% 0 mm 543.00 W/m2
13:42 9.2 °C 0.2 °C 1035.4 hPa WNW 1.6 km/h 1.6 km/h 53% 0 mm 536.00 W/m2
13:47 9.3 °C 0.4 °C 1035.4 hPa Calm     54% 0 mm 529.00 W/m2
13:52 9.4 °C 0.3 °C 1035.4 hPa Calm     53% 0 mm 520.00 W/m2
13:57 9.4 °C 0.6 °C 1035.4 hPa Calm     54% 0 mm 513.00 W/m2
14:02 9.6 °C 0.7 °C 1035.4 hPa Calm     54% 0 mm 503.00 W/m2
14:07 9.7 °C 0.8 °C 1035.4 hPa Calm     54% 0 mm 492.00 W/m2
14:12 9.7 °C 0.6 °C 1035.4 hPa Calm   1.6 km/h 53% 0 mm 485.00 W/m2
14:17 9.7 °C 1.1 °C 1035.4 hPa Calm     55% 0 mm 475.00 W/m2
14:22 9.7 °C 1.3 °C 1035.4 hPa Calm     56% 0 mm 462.00 W/m2
14:27 9.7 °C 1.8 °C 1035.4 hPa Calm   3.2 km/h 58% 0 mm 454.00 W/m2
14:32 9.6 °C 1.7 °C 1035.4 hPa Calm     58% 0 mm 443.00 W/m2
14:37 9.4 °C 2.1 °C 1035.4 hPa Calm   1.6 km/h 60% 0 mm 431.00 W/m2
14:42 9.3 °C 1.7 °C 1035.4 hPa Calm     59% 0 mm 420.00 W/m2
14:49 9.3 °C 1.3 °C 1035.4 hPa Calm   1.6 km/h 57% 0 mm 406.00 W/m2
14:54 9.3 °C 1.7 °C 1035.4 hPa Calm     59% 0 mm 390.00 W/m2
14:57 9.3 °C 1.7 °C 1035.8 hPa Calm   1.6 km/h 59% 0 mm 383.00 W/m2
14:59 9.2 °C 1.6 °C 1035.8 hPa WNW 1.6 km/h 1.6 km/h 59% 0 mm 376.00 W/m2
15:02 9.2 °C 1.2 °C 1035.8 hPa Calm     57% 0 mm 371.00 W/m2
15:07 9.2 °C 1.6 °C 1035.8 hPa Calm   1.6 km/h 59% 0 mm 357.00 W/m2
15:12 9.1 °C 2 °C 1036.1 hPa Calm   1.6 km/h 61% 0 mm 345.00 W/m2
15:17 9.1 °C 1.7 °C 1036.1 hPa WSW 11.3 km/h 11.3 km/h 60% 0 mm 330.00 W/m2
15:22 9.1 °C 1.9 °C 1036.5 hPa SW 11.3 km/h 12.9 km/h 61% 0 mm 315.00 W/m2
15:27 9 °C 2.1 °C 1036.5 hPa Calm   1.6 km/h 62% 0 mm 301.00 W/m2
15:32 8.8 °C 2.4 °C 1036.5 hPa Calm   1.6 km/h 64% 0 mm 288.00 W/m2
15:37 8.7 °C 2.2 °C 1036.5 hPa SSW 8 km/h 11.3 km/h 64% 0 mm 272.00 W/m2
15:42 8.6 °C 2.1 °C 1036.8 hPa West 6.4 km/h 11.3 km/h 64% 0 mm 258.00 W/m2
15:47 8.4 °C 2 °C 1036.8 hPa SW 9.7 km/h 9.7 km/h 64% 0 mm 243.00 W/m2
15:52 8.3 °C 2.1 °C 1036.8 hPa Calm   12.9 km/h 65% 0 mm 221.00 W/m2
15:57 8.2 °C 2 °C 1036.8 hPa Calm   8 km/h 65% 0 mm 204.00 W/m2
16:02 8 °C 2.1 °C 1036.8 hPa Calm   1.6 km/h 66% 0 mm 183.00 W/m2
16:07 7.8 °C 1.9 °C 1037.1 hPa SSW 8 km/h 9.7 km/h 66% 0 mm 165.00 W/m2
16:12 7.7 °C 2.1 °C 1037.1 hPa Calm   1.6 km/h 68% 0 mm 149.00 W/m2
16:17 7.6 °C 2.1 °C 1037.1 hPa Calm   1.6 km/h 68% 0 mm 127.00 W/m2
16:22 7.4 °C 1.9 °C 1037.5 hPa Calm   1.6 km/h 68% 0 mm 113.00 W/m2
16:27 7.3 °C 1.8 °C 1037.5 hPa Calm     68% 0 mm 93.00 W/m2
16:32 7.2 °C 1.9 °C 1037.5 hPa Calm     69% 0 mm 77.00 W/m2
16:37 7.1 °C 1.9 °C 1037.5 hPa Calm     70% 0 mm 62.00 W/m2
16:42 6.9 °C 2.2 °C 1037.5 hPa Calm     72% 0 mm 47.00 W/m2
16:47 6.8 °C 2.2 °C 1037.5 hPa Calm     72% 0 mm 37.00 W/m2
16:52 6.7 °C 2.1 °C 1037.8 hPa Calm     72% 0 mm 28.00 W/m2
16:57 6.6 °C 1.9 °C 1037.8 hPa Calm     72% 0 mm 19.00 W/m2
17:02 6.5 °C 2.2 °C 1037.8 hPa Calm     74% 0 mm 16.00 W/m2
17:12 6.2 °C 1.9 °C 1037.8 hPa Calm     74% 0 mm 11.00 W/m2
17:17 6.1 °C 1.9 °C 1037.8 hPa Calm     75% 0 mm 7.00 W/m2
17:22 5.8 °C 1.9 °C 1037.8 hPa Calm     76% 0 mm 5.00 W/m2
17:27 5.7 °C 1.8 °C 1038.1 hPa Calm     76% 0 mm 0.00 W/m2
17:32 5.6 °C 1.7 °C 1038.1 hPa Calm     76% 0 mm 0.00 W/m2
17:42 5.2 °C 1.7 °C 1038.5 hPa Calm     78% 0 mm 0.00 W/m2
17:47 5.1 °C 1.7 °C 1038.5 hPa Calm     79% 0 mm 0.00 W/m2
17:52 4.7 °C 1.6 °C 1038.5 hPa Calm     80% 0 mm 0.00 W/m2
17:57 4.6 °C 1.4 °C 1038.5 hPa Calm     80% 0 mm 0.00 W/m2
18:02 4.3 °C 1.4 °C 1038.8 hPa Calm     81% 0 mm 0.00 W/m2
18:08 4.2 °C 1.6 °C 1038.8 hPa Calm     83% 0 mm 0.00 W/m2
18:13 3.9 °C 1.5 °C 1038.8 hPa Calm     84% 0 mm 0.00 W/m2
18:18 3.8 °C 1.3 °C 1038.8 hPa Calm     84% 0 mm 0.00 W/m2
18:23 3.6 °C 1.3 °C 1039.2 hPa Calm     85% 0 mm 0.00 W/m2
18:28 3.5 °C 1.4 °C 1038.8 hPa Calm     86% 0 mm 0.00 W/m2
18:33 3.3 °C 1.4 °C 1039.2 hPa Calm     87% 0 mm 0.00 W/m2
18:38 3.2 °C 1.2 °C 1038.8 hPa Calm     87% 0 mm 0.00 W/m2
18:43 3 °C 1.2 °C 1038.8 hPa Calm     88% 0 mm 0.00 W/m2
18:48 2.9 °C 1.3 °C 1038.8 hPa Calm     89% 0 mm 0.00 W/m2
18:53 2.8 °C 1.2 °C 1038.8 hPa Calm     89% 0 mm 0.00 W/m2
18:58 2.8 °C 1.3 °C 1038.8 hPa Calm     90% 0 mm 0.00 W/m2
19:03 2.7 °C 1.2 °C 1038.8 hPa Calm     90% 0 mm 0.00 W/m2
19:08 2.7 °C 1.2 °C 1038.8 hPa Calm     90% 0 mm 0.00 W/m2
19:17 2.7 °C 1.3 °C 1038.8 hPa Calm     91% 0 mm 0.00 W/m2
19:22 2.7 °C 1.3 °C 1038.8 hPa Calm     91% 0 mm 0.00 W/m2
19:27 2.7 °C 1.3 °C 1038.8 hPa Calm     91% 0 mm 0.00 W/m2
19:28 2.7 °C 1.4 °C 1038.8 hPa Calm     91% 0 mm 0.00 W/m2
19:33 2.7 °C 1.4 °C 1038.8 hPa Calm     91% 0 mm 0.00 W/m2
19:38 2.7 °C 1.4 °C 1038.8 hPa Calm     91% 0 mm 0.00 W/m2
19:43 2.7 °C 1.6 °C 1038.8 hPa Calm     92% 0 mm 0.00 W/m2
19:48 2.7 °C 1.6 °C 1038.8 hPa Calm     92% 0 mm 0.00 W/m2
19:53 2.7 °C 1.6 °C 1038.8 hPa Calm     92% 0 mm 0.00 W/m2
19:58 2.7 °C 1.5 °C 1038.5 hPa Calm     92% 0 mm 0.00 W/m2
20:03 2.7 °C 1.5 °C 1038.5 hPa Calm     92% 0 mm 0.00 W/m2
20:08 2.6 °C 1.4 °C 1038.5 hPa Calm     92% 0 mm 0.00 W/m2
20:13 2.6 °C 1.4 °C 1038.8 hPa Calm     92% 0 mm 0.00 W/m2
20:18 2.6 °C 1.4 °C 1038.8 hPa Calm     92% 0 mm 0.00 W/m2
20:23 2.6 °C 1.4 °C 1038.8 hPa Calm     92% 0 mm 0.00 W/m2
20:28 2.6 °C 1.6 °C 1038.8 hPa Calm     93% 0 mm 0.00 W/m2
20:38 2.7 °C 1.7 °C 1039.2 hPa Calm     93% 0 mm 0.00 W/m2
20:43 2.7 °C 1.7 °C 1038.8 hPa Calm     93% 0 mm 0.00 W/m2
20:48 2.7 °C 1.7 °C 1039.2 hPa Calm     93% 0 mm 0.00 W/m2
20:53 2.7 °C 1.7 °C 1038.8 hPa Calm     93% 0 mm 0.00 W/m2
20:58 2.7 °C 1.7 °C 1038.8 hPa Calm     93% 0 mm 0.00 W/m2
21:03 2.6 °C 1.6 °C 1038.8 hPa Calm     93% 0 mm 0.00 W/m2
21:08 2.6 °C 1.6 °C 1038.8 hPa Calm     93% 0 mm 0.00 W/m2
21:13 2.6 °C 1.6 °C 1039.2 hPa Calm     93% 0 mm 0.00 W/m2
21:18 2.6 °C 1.6 °C 1038.8 hPa Calm     93% 0 mm 0.00 W/m2
21:23 2.6 °C 1.6 °C 1038.8 hPa Calm     93% 0 mm 0.00 W/m2
21:28 2.5 °C 1.5 °C 1038.8 hPa Calm     93% 0 mm 0.00 W/m2
21:33 2.5 °C 1.5 °C 1038.8 hPa Calm     93% 0 mm 0.00 W/m2
21:38 2.4 °C 1.4 °C 1038.8 hPa Calm     93% 0 mm 0.00 W/m2
21:43 2.4 °C 1.4 °C 1038.8 hPa Calm     93% 0 mm 0.00 W/m2
21:48 2.4 °C 1.4 °C 1038.8 hPa Calm     93% 0 mm 0.00 W/m2
21:53 2.3 °C 1.2 °C 1038.8 hPa Calm     92% 0 mm 0.00 W/m2
21:58 2.3 °C 1.1 °C 1038.8 hPa Calm     92% 0 mm 0.00 W/m2
22:03 2.3 °C 1.1 °C 1038.8 hPa Calm     92% 0 mm 0.00 W/m2
22:08 2.2 °C 1.1 °C 1038.8 hPa Calm     92% 0 mm 0.00 W/m2
22:18 2.2 °C 1 °C 1038.8 hPa Calm     92% 0 mm 0.00 W/m2
22:23 2.1 °C 0.8 °C 1039.2 hPa Calm     91% 0 mm 0.00 W/m2
22:28 2.1 °C 0.9 °C 1039.2 hPa Calm     92% 0 mm 0.00 W/m2
22:33 2.1 °C 0.9 °C 1039.2 hPa Calm     92% 0 mm 0.00 W/m2
22:38 2.1 °C 0.9 °C 1039.2 hPa Calm     92% 0 mm 0.00 W/m2
22:44 1.9 °C 0.6 °C 1038.8 hPa Calm     91% 0 mm 0.00 W/m2
22:49 1.8 °C 0.5 °C 1038.8 hPa Calm     91% 0 mm 0.00 W/m2
22:54 1.8 °C 0.6 °C 1038.8 hPa Calm     92% 0 mm 0.00 W/m2
22:59 1.8 °C 0.6 °C 1038.8 hPa Calm     92% 0 mm 0.00 W/m2
23:04 1.7 °C 0.6 °C 1038.8 hPa Calm     92% 0 mm 0.00 W/m2
23:09 1.7 °C 0.5 °C 1038.8 hPa Calm     92% 0 mm 0.00 W/m2
23:14 1.6 °C 0.4 °C 1038.8 hPa Calm     92% 0 mm 0.00 W/m2
23:19 1.6 °C 0.4 °C 1038.8 hPa Calm     92% 0 mm 0.00 W/m2
23:24 1.6 °C 0.4 °C 1038.8 hPa Calm     92% 0 mm 0.00 W/m2
23:34 1.6 °C 0.4 °C 1038.5 hPa Calm     92% 0 mm 0.00 W/m2
23:39 1.6 °C 0.4 °C 1038.5 hPa Calm     92% 0 mm 0.00 W/m2
23:44 1.6 °C 0.4 °C 1038.5 hPa Calm     92% 0 mm 0.00 W/m2
23:49 1.5 °C 0.3 °C 1038.5 hPa Calm     92% 0 mm 0.00 W/m2
23:54 1.5 °C 0.3 °C 1038.5 hPa Calm     92% 0 mm 0.00 W/m2
23:59 1.6 °C 0.4 °C 1038.5 hPa Calm     92% 0 mm 0.00 W/m2
Foresthill Weather
 WU-history PHP script courtesy of   Juneau County Weather.
powered by Cumulus v1.9.3 (1059)
Ambient Weather VWS v14.00
Top Contact Website Map Copyright © 2007 - 2018 Foresthillweather.com Never base important decisions on this or any weather information obtained from the Internet